Time;durP1;ratioP1;P1;durP2;ratioP2;P2;SDS_P1;SDS_P2;PMS_P1;PMS_P2;Temp;Humidity;BMP_temperature;BMP_pressure;BME280_temperature;BME280_humidity;BME280_pressure;Samples;Min_cycle;Max_cycle;Signal;HPM_P1;HPM_P2
2022/05/30 00:01:11;;;;;;;;;4.00;2.67;;;;;13.33;53.81;100874.28;5016716;28;45313;-73
2022/05/30 00:03:37;;;;;;;;;3.00;3.00;;;;;13.28;53.61;100860.56;5016569;28;46082;-73
2022/05/30 00:06:10;;;;;;;;;2.00;2.00;;;;;13.40;53.87;100861.13;5016931;28;45398;-75
2022/05/30 00:08:36;;;;;;;;;3.00;3.00;;;;;13.32;53.54;100850.41;5031904;28;45322;-73
2022/05/30 00:11:06;;;;;;;;;3.67;3.00;;;;;13.46;53.86;100857.84;5031628;28;45468;-75
2022/05/30 00:13:32;;;;;;;;;3.00;3.00;;;;;13.19;53.42;100807.28;5031715;28;48597;-77
2022/05/30 00:16:09;;;;;;;;;3.00;3.00;;;;;13.50;53.58;100863.69;5016788;28;45464;-75
2022/05/30 00:18:36;;;;;;;;;3.33;2.33;;;;;13.28;53.99;100833.88;5019625;28;45479;-74
2022/05/30 00:21:02;;;;;;;;;3.00;2.00;;;;;13.23;53.60;100822.84;5022256;28;45506;-74
2022/05/30 00:23:27;;;;;;;;;3.00;3.00;;;;;13.33;53.71;100830.72;5019837;28;45547;-75
2022/05/30 00:25:53;;;;;;;;;3.33;2.33;;;;;13.21;53.66;100813.28;5035345;28;45448;-74
2022/05/30 00:28:19;;;;;;;;;2.00;2.00;;;;;13.26;53.49;100814.50;5032813;28;45523;-76
2022/05/30 00:30:46;;;;;;;;;4.00;3.00;;;;;13.38;53.74;100849.75;5042573;28;45473;-73
2022/05/30 00:33:12;;;;;;;;;10.33;9.33;;;;;13.29;54.23;100818.69;5040774;28;46546;-73
2022/05/30 00:35:41;;;;;;;;;7.00;3.00;;;;;13.18;53.39;100789.59;5037870;28;46417;-75
2022/05/30 00:38:08;;;;;;;;;3.00;3.00;;;;;13.41;54.49;100841.44;5037975;28;45503;-75
2022/05/30 00:40:34;;;;;;;;;3.00;3.00;;;;;13.24;54.87;100821.84;5039821;28;45407;-74
2022/05/30 00:43:20;;;;;;;;;5.00;3.00;;;;;13.28;54.98;100838.38;5037816;28;48067;-74
2022/05/30 00:45:45;;;;;;;;;3.67;3.67;;;;;11.72;54.95;100579.69;5029126;28;46031;-73
2022/05/30 00:48:10;;;;;;;;;2.00;2.00;;;;;13.21;55.13;100823.97;5021059;28;45530;-74
2022/05/30 00:50:38;;;;;;;;;3.00;2.00;;;;;13.24;55.22;100826.34;5019697;28;45536;-74
2022/05/30 00:53:04;;;;;;;;;4.00;4.00;;;;;12.70;55.10;100738.44;5019227;28;45199;-74
2022/05/30 00:55:30;;;;;;;;;5.33;5.33;;;;;12.70;55.65;100762.44;5019244;28;45317;-74
2022/05/30 00:57:56;;;;;;;;;4.00;4.00;;;;;12.68;56.23;100772.44;5034394;28;45250;-76
2022/05/30 01:00:25;;;;;;;;;4.33;3.00;;;;;12.91;56.46;100826.13;5019648;28;45256;-74
2022/05/30 01:06:30;;;;;;;;;2.33;2.33;;;;;13.01;56.07;100832.19;5019098;28;46438;-75
2022/05/30 01:08:24;;;;;;;;;5.00;5.00;;;;;12.99;56.59;100818.16;5019217;28;45395;-77
2022/05/30 01:10:49;;;;;;;;;7.67;4.67;;;;;12.57;56.83;100763.84;5020535;28;45577;-74
2022/05/30 01:13:15;;;;;;;;;3.00;3.00;;;;;12.79;56.86;100809.50;5019895;28;46194;-74
2022/05/30 01:15:40;;;;;;;;;4.00;4.00;;;;;12.12;57.48;100687.56;5020042;28;45549;-74
2022/05/30 01:18:28;;;;;;;;;6.00;4.00;;;;;12.89;56.78;100805.94;5018033;28;45287;-75
2022/05/30 01:21:06;;;;;;;;;6.67;5.00;;;;;12.94;56.88;100804.44;5019397;28;45570;-73
2022/05/30 01:24:14;;;;;;;;;5.00;5.00;;;;;12.55;56.20;100749.84;5018892;28;45630;-74
2022/05/30 01:27:00;;;;;;;;;5.33;5.33;;;;;12.92;57.20;100805.59;5017142;28;45253;-71
2022/05/30 01:29:32;;;;;;;;;6.00;5.00;;;;;12.94;56.90;100792.94;5018758;28;45282;-76
2022/05/30 01:31:58;;;;;;;;;4.00;4.00;;;;;12.71;57.38;100769.47;5039239;28;45432;-75
2022/05/30 01:34:25;;;;;;;;;6.00;5.00;;;;;11.88;57.69;100637.59;5037220;28;47906;-74
2022/05/30 01:36:51;;;;;;;;;4.33;3.00;;;;;12.04;57.37;100660.88;5038609;28;45431;-76
2022/05/30 01:39:17;;;;;;;;;5.33;5.33;;;;;12.90;57.55;100803.09;5020436;28;45543;-73
2022/05/30 01:41:42;;;;;;;;;4.33;4.33;;;;;12.62;57.32;100753.56;5018389;28;45225;-76
2022/05/30 01:44:08;;;;;;;;;4.33;4.33;;;;;12.63;57.18;100768.59;5018272;28;46779;-75
2022/05/30 01:46:33;;;;;;;;;6.67;6.33;;;;;12.51;56.96;100744.00;5018926;28;45328;-73
2022/05/30 01:48:59;;;;;;;;;4.00;4.00;;;;;12.57;56.89;100732.69;5017564;28;45419;-75
2022/05/30 01:51:25;;;;;;;;;10.67;6.00;;;;;12.77;57.43;100790.16;5019545;28;45376;-75
2022/05/30 01:53:52;;;;;;;;;4.33;3.00;;;;;11.92;57.00;100648.78;5020771;28;46458;-75
2022/05/30 01:56:19;;;;;;;;;5.00;5.00;;;;;12.74;57.22;100776.31;5018275;28;45562;-73
2022/05/30 01:58:44;;;;;;;;;9.67;5.67;;;;;11.76;57.10;100625.47;5016999;28;45302;-73
2022/05/30 02:01:20;;;;;;;;;4.00;4.00;;;;;12.77;56.97;100789.31;5034395;28;45411;-74
2022/05/30 02:03:47;;;;;;;;;5.33;5.00;;;;;12.78;57.35;100799.84;5038131;28;46370;-73
2022/05/30 02:06:12;;;;;;;;;3.33;3.00;;;;;12.86;57.43;100806.25;5038301;28;45510;-74
2022/05/30 02:08:38;;;;;;;;;5.67;3.67;;;;;12.80;57.25;100818.34;5038548;28;45419;-75
2022/05/30 02:11:03;;;;;;;;;5.00;5.00;;;;;12.49;57.88;100756.66;5038814;28;45427;-74
2022/05/30 02:13:28;;;;;;;;;5.00;5.00;;;;;12.52;57.35;100776.81;5037954;28;46395;-74
2022/05/30 02:18:38;;;;;;;;;5.33;5.00;;;;;12.71;57.42;100790.81;5023282;28;45459;-76
2022/05/30 02:21:04;;;;;;;;;7.00;7.00;;;;;12.46;58.43;100781.78;5033265;28;45341;-73
2022/05/30 02:23:29;;;;;;;;;3.33;3.33;;;;;12.34;58.71;100768.84;5017721;28;45507;-74
2022/05/30 02:25:55;;;;;;;;;6.00;6.00;;;;;12.42;58.70;100799.09;5018047;28;45365;-74
2022/05/30 02:28:20;;;;;;;;;7.33;6.00;;;;;11.78;59.24;100701.59;5016583;28;45329;-77
2022/05/30 02:30:45;;;;;;;;;8.00;6.67;;;;;11.54;59.64;100680.88;5017999;28;45157;-74
2022/05/30 02:38:39;;;;;;;;;8.00;6.33;;;;;11.52;59.44;100682.03;5037592;28;45429;-74
2022/05/30 02:41:04;;;;;;;;;5.00;5.00;;;;;12.05;59.41;100769.13;5036022;28;45577;-75
2022/05/30 02:43:30;;;;;;;;;5.33;5.33;;;;;12.02;59.55;100764.94;5037298;28;46339;-76
2022/05/30 02:45:56;;;;;;;;;5.00;5.00;;;;;12.27;59.99;100797.97;5037818;28;45949;-75
2022/05/30 02:48:21;;;;;;;;;7.00;6.67;;;;;11.82;60.10;100726.13;5037648;28;45294;-75
2022/05/30 02:50:46;;;;;;;;;6.67;6.00;;;;;12.23;59.88;100787.78;5038540;28;45292;-76
2022/05/30 02:53:12;;;;;;;;;7.33;7.33;;;;;12.12;59.98;100786.16;5031938;28;47481;-74
2022/05/30 02:55:38;;;;;;;;;7.33;7.00;;;;;12.34;60.00;100792.84;5018062;28;45594;-74
2022/05/30 02:58:03;;;;;;;;;7.00;6.00;;;;;12.16;59.46;100763.53;5016954;28;45420;-75
2022/05/30 03:00:29;;;;;;;;;6.00;6.00;;;;;12.46;59.62;100805.78;5032684;28;45553;-75
2022/05/30 03:02:55;;;;;;;;;5.67;4.33;;;;;12.42;58.82;100796.44;5016656;28;47267;-76
2022/05/30 03:05:21;;;;;;;;;8.33;4.00;;;;;11.84;59.12;100678.84;5017644;28;45258;-74
2022/05/30 03:07:46;;;;;;;;;7.00;6.00;;;;;12.62;58.70;100814.91;5017503;28;45218;-74
2022/05/30 03:10:12;;;;;;;;;4.00;4.00;;;;;12.54;58.77;100802.34;5032475;28;45535;-78
2022/05/30 03:12:37;;;;;;;;;7.00;6.00;;;;;12.41;59.71;100800.09;5017430;28;45881;-74
2022/05/30 03:15:03;;;;;;;;;7.00;6.00;;;;;12.20;59.53;100788.88;5015877;28;45343;-74
2022/05/30 03:17:28;;;;;;;;;6.33;6.00;;;;;11.76;60.01;100719.53;5016905;28;45356;-74
2022/05/30 03:19:54;;;;;;;;;9.00;7.00;;;;;11.64;59.95;100728.75;5017170;28;45283;-73
2022/05/30 03:22:19;;;;;;;;;7.33;6.67;;;;;11.69;60.29;100726.47;5034606;28;47892;-73
2022/05/30 03:24:44;;;;;;;;;6.67;6.00;;;;;11.18;60.41;100648.06;5037319;28;45312;-75
2022/05/30 03:27:10;;;;;;;;;6.00;5.33;;;;;11.70;60.28;100736.13;5038221;28;45380;-76
2022/05/30 03:29:35;;;;;;;;;7.33;6.33;;;;;12.07;60.28;100807.13;5034091;28;45452;-74
2022/05/30 03:32:01;;;;;;;;;5.33;5.00;;;;;8.94;59.84;100311.06;5020972;28;45889;-74
2022/05/30 03:34:26;;;;;;;;;7.00;5.33;;;;;11.06;60.16;100654.59;5016916;28;45403;-75
2022/05/30 03:36:52;;;;;;;;;6.00;6.00;;;;;11.93;60.73;100820.94;5016886;28;45875;-75
2022/05/30 03:39:17;;;;;;;;;5.00;5.00;;;;;11.49;60.26;100735.56;5017048;28;45312;-74
2022/05/30 03:41:42;;;;;;;;;6.00;5.00;;;;;11.50;60.40;100738.09;5033899;28;46065;-73
2022/05/30 03:44:08;;;;;;;;;6.67;6.00;;;;;11.33;60.84;100732.72;5036491;28;45454;-75
2022/05/30 03:46:33;;;;;;;;;10.67;8.00;;;;;11.56;60.49;100763.25;5037080;28;45451;-75
2022/05/30 03:48:59;;;;;;;;;5.33;5.33;;;;;11.47;60.88;100756.19;5036026;28;45526;-74
2022/05/30 03:51:25;;;;;;;;;7.67;6.67;;;;;11.60;59.92;100767.28;5034394;28;45568;-74
2022/05/30 03:53:52;;;;;;;;;9.00;8.00;;;;;11.78;60.48;100796.63;5037182;28;45580;-75
2022/05/30 03:56:19;;;;;;;;;8.00;7.33;;;;;11.63;60.55;100775.00;5038539;28;45349;-74
2022/05/30 03:58:44;;;;;;;;;8.67;8.67;;;;;11.72;60.82;100811.38;5038690;28;45419;-73
2022/05/30 04:01:10;;;;;;;;;7.67;7.00;;;;;10.57;60.37;100616.78;5023550;28;45386;-75
2022/05/30 04:03:36;;;;;;;;;6.33;5.33;;;;;11.82;60.38;100828.19;5020754;28;45519;-74
2022/05/30 04:06:03;;;;;;;;;8.33;7.67;;;;;11.76;60.55;100812.75;5020615;28;45415;-76
2022/05/30 04:08:28;;;;;;;;;6.00;6.00;;;;;11.40;60.49;100747.09;5020533;28;45631;-73
2022/05/30 04:10:55;;;;;;;;;5.00;5.00;;;;;11.52;60.38;100772.53;5018913;28;46862;-73
2022/05/30 04:13:20;;;;;;;;;10.33;8.33;;;;;10.98;60.50;100681.09;5035359;28;45382;-76
2022/05/30 04:15:45;;;;;;;;;7.67;6.67;;;;;11.50;60.11;100761.22;5035372;28;45371;-75
2022/05/30 04:18:11;;;;;;;;;7.00;6.00;;;;;11.63;60.10;100775.00;5035193;28;45268;-73
2022/05/30 04:20:36;;;;;;;;;8.00;8.00;;;;;11.99;59.77;100839.00;5034620;28;47806;-72
2022/05/30 04:23:02;;;;;;;;;9.33;6.67;;;;;11.16;59.51;100697.09;5019751;28;45281;-73
2022/05/30 04:25:28;;;;;;;;;8.33;5.33;;;;;11.92;60.44;100835.25;5019728;28;45356;-74
2022/05/30 04:27:53;;;;;;;;;8.67;8.67;;;;;11.61;59.72;100776.94;5019780;28;45565;-73
2022/05/30 04:30:18;;;;;;;;;10.67;8.00;;;;;11.59;59.86;100753.16;5039194;28;45705;-77
2022/05/30 04:32:44;;;;;;;;;9.67;9.67;;;;;11.90;59.90;100829.25;5039407;28;45286;-74
2022/05/30 04:35:11;;;;;;;;;9.33;7.00;;;;;12.00;60.04;100846.00;5038144;28;45259;-73
2022/05/30 04:37:37;;;;;;;;;6.67;6.67;;;;;12.06;59.55;100842.75;5039770;28;45363;-76
2022/05/30 04:40:03;;;;;;;;;8.00;6.67;;;;;12.06;59.07;100819.59;5037308;28;47320;-75
2022/05/30 04:42:28;;;;;;;;;8.67;7.00;;;;;11.81;59.27;100791.00;5039655;28;45321;-75
2022/05/30 04:44:54;;;;;;;;;7.00;7.00;;;;;11.95;59.13;100818.97;5037645;28;45333;-74
2022/05/30 04:47:19;;;;;;;;;7.33;6.33;;;;;11.35;59.71;100744.88;5039663;28;45601;-75
2022/05/30 04:49:47;;;;;;;;;8.00;6.67;;;;;11.42;59.83;100755.81;5023767;28;45700;-73
2022/05/30 04:52:12;;;;;;;;;6.33;6.00;;;;;11.52;59.43;100783.19;5019024;28;45503;-74
2022/05/30 04:54:38;;;;;;;;;8.67;8.00;;;;;11.85;59.56;100833.22;5019429;28;45273;-77
2022/05/30 04:57:05;;;;;;;;;6.67;6.33;;;;;11.48;59.54;100772.00;5017923;28;45585;-75
2022/05/30 04:59:31;;;;;;;;;9.33;7.33;;;;;11.97;59.06;100840.97;5034779;28;47807;-75
2022/05/30 05:01:56;;;;;;;;;9.00;7.00;;;;;11.94;59.03;100830.63;5027121;28;45418;-75
2022/05/30 05:04:21;;;;;;;;;8.67;8.67;;;;;11.94;59.21;100835.94;5039627;28;45308;-75
2022/05/30 05:06:49;;;;;;;;;10.00;9.00;;;;;11.66;59.30;100793.34;5038632;28;45383;-76
2022/05/30 05:09:17;;;;;;;;;9.00;9.00;;;;;12.13;58.98;100849.13;5039227;28;45433;-74
2022/05/30 05:11:45;;;;;;;;;7.33;7.33;;;;;11.21;58.97;100711.66;5024115;28;45415;-74
2022/05/30 05:14:11;;;;;;;;;10.67;9.00;;;;;12.10;58.64;100852.09;5019887;28;45406;-74
2022/05/30 05:16:36;;;;;;;;;9.00;8.67;;;;;12.18;58.93;100868.16;5019030;28;45596;-74
2022/05/30 05:19:02;;;;;;;;;7.00;7.00;;;;;12.07;58.43;100855.09;5034202;28;47848;-73
2022/05/30 05:21:37;;;;;;;;;9.00;9.00;;;;;12.17;58.31;100858.50;5026416;28;45334;-75
2022/05/30 05:24:05;;;;;;;;;8.33;8.00;;;;;12.19;57.93;100860.03;5017536;28;45477;-74
2022/05/30 05:26:31;;;;;;;;;12.00;10.00;;;;;12.12;58.62;100850.97;5018737;28;45234;-75
2022/05/30 05:28:57;;;;;;;;;10.33;9.67;;;;;11.85;58.58;100811.91;5018434;28;45793;-75
2022/05/30 05:31:27;;;;;;;;;10.00;10.00;;;;;12.18;58.58;100850.34;5032232;28;45416;-74
2022/05/30 05:33:54;;;;;;;;;9.33;8.00;;;;;12.13;58.15;100827.81;5039998;28;45423;-75
2022/05/30 05:36:29;;;;;;;;;11.00;8.67;;;;;12.19;58.02;100824.53;5040688;28;45605;-75
2022/05/30 05:38:55;;;;;;;;;10.33;9.00;;;;;12.12;57.58;100802.16;5038653;28;47589;-72
2022/05/30 05:41:23;;;;;;;;;15.00;15.00;;;;;12.27;57.56;100810.47;5040504;28;45245;-75
2022/05/30 05:43:50;;;;;;;;;10.33;10.00;;;;;12.45;57.10;100841.44;5037260;28;45536;-73
2022/05/30 05:46:19;;;;;;;;;9.33;9.33;;;;;12.55;57.45;100846.69;5037669;28;45599;-76
2022/05/30 05:48:45;;;;;;;;;9.00;7.67;;;;;12.59;56.99;100853.38;5030021;28;45294;-72
2022/05/30 05:51:13;;;;;;;;;10.67;8.67;;;;;12.63;57.08;100867.28;5022441;28;45200;-76
2022/05/30 05:53:40;;;;;;;;;9.00;9.00;;;;;12.51;56.77;100839.16;5024053;28;45259;-74
2022/05/30 05:56:24;;;;;;;;;13.00;11.67;;;;;12.98;56.30;100895.69;5029413;28;45539;-77
2022/05/30 05:58:51;;;;;;;;;11.67;9.00;;;;;13.76;54.28;100874.31;5038218;28;45695;-75
2022/05/30 06:01:23;;;;;;;;;8.00;8.00;;;;;14.00;52.45;100783.50;5038389;28;45430;-76
2022/05/30 06:03:52;;;;;;;;;10.00;8.33;;;;;13.46;49.81;100560.53;5038623;28;45461;-75
2022/05/30 06:06:17;;;;;;;;;9.33;9.33;;;;;15.65;48.51;100800.81;5036541;28;45572;-75
2022/05/30 06:08:43;;;;;;;;;8.00;7.00;;;;;16.70;45.95;100877.09;5018105;28;47285;-76
2022/05/30 06:11:08;;;;;;;;;8.33;5.00;;;;;17.37;44.34;100881.63;5023179;28;46349;-79
2022/05/30 06:13:36;;;;;;;;;7.00;6.67;;;;;17.92;43.04;100835.44;5036438;28;45261;-75
2022/05/30 06:16:07;;;;;;;;;8.67;7.67;;;;;18.31;40.83;100804.59;5036620;28;45345;-75
2022/05/30 06:18:33;;;;;;;;;7.67;5.67;;;;;18.98;40.27;100852.59;5037925;28;45340;-78
2022/05/30 06:20:59;;;;;;;;;6.00;5.00;;;;;19.50;39.74;100861.22;5036738;28;45427;-74
2022/05/30 06:23:24;;;;;;;;;10.33;9.67;;;;;19.79;38.17;100838.56;5038056;28;45276;-73
2022/05/30 06:25:50;;;;;;;;;8.67;7.67;;;;;20.23;37.46;100830.81;5053529;28;45461;-75
2022/05/30 06:28:15;;;;;;;;;5.67;4.67;;;;;20.54;36.89;100859.13;5037703;28;48059;-76
2022/05/30 06:30:40;;;;;;;;;5.00;5.00;;;;;20.63;36.46;100809.28;5037714;28;45458;-77
2022/05/30 06:33:06;;;;;;;;;6.67;5.67;;;;;21.21;35.50;100834.53;5038282;28;45447;-74
2022/05/30 06:35:31;;;;;;;;;8.67;7.67;;;;;21.73;34.57;100869.81;5039216;28;45364;-78
2022/05/30 06:37:57;;;;;;;;;6.00;6.00;;;;;22.03;33.49;100864.69;5038354;28;47022;-75
2022/05/30 06:40:22;;;;;;;;;4.67;3.33;;;;;21.24;33.72;100692.72;5038618;28;45855;-77
2022/05/30 06:42:48;;;;;;;;;9.00;6.33;;;;;22.02;33.18;100796.13;5040532;28;45260;-75
2022/05/30 06:45:13;;;;;;;;;6.00;5.00;;;;;22.70;32.46;100853.22;5038363;28;45327;-74
2022/05/30 06:47:39;;;;;;;;;5.33;4.00;;;;;22.42;32.17;100745.25;5053604;28;47153;-76
2022/05/30 06:50:05;;;;;;;;;9.00;9.00;;;;;23.56;31.46;100870.56;5036462;28;45547;-77
2022/05/30 06:52:30;;;;;;;;;7.00;5.67;;;;;24.00;30.34;100882.16;5037933;28;45509;-73
2022/05/30 06:54:56;;;;;;;;;5.33;5.00;;;;;24.25;29.87;100842.13;5037698;28;45328;-74
2022/05/30 07:00:06;;;;;;;;;8.00;6.67;;;;;24.40;28.48;100757.44;5038020;28;45444;-76
2022/05/30 07:02:31;;;;;;;;;5.00;5.00;;;;;25.20;28.37;100846.66;5037597;28;45536;-74
2022/05/30 07:04:57;;;;;;;;;7.00;6.00;;;;;25.40;28.19;100850.63;5036790;28;45405;-77
2022/05/30 07:07:22;;;;;;;;;7.33;7.00;;;;;25.36;27.15;100805.09;5038744;28;46286;-75
2022/05/30 07:09:48;;;;;;;;;9.33;6.00;;;;;25.74;26.95;100851.66;5039152;28;45487;-76
2022/05/30 07:12:13;;;;;;;;;7.00;6.00;;;;;25.88;26.72;100827.72;5039584;28;45371;-76
2022/05/30 07:14:39;;;;;;;;;5.33;5.00;;;;;26.22;26.89;100842.22;5041163;28;45369;-78
2022/05/30 07:17:06;;;;;;;;;6.33;6.33;;;;;26.06;26.16;100840.31;5037903;28;47801;-74
2022/05/30 07:19:32;;;;;;;;;5.00;5.00;;;;;25.43;25.98;100729.59;5052844;28;45367;-77
2022/05/30 07:21:58;;;;;;;;;4.00;4.00;;;;;26.01;26.52;100802.06;5036082;28;45337;-77
2022/05/30 07:24:23;;;;;;;;;5.00;5.00;;;;;26.67;25.66;100846.88;5037176;28;45514;-75
2022/05/30 07:26:49;;;;;;;;;5.00;5.00;;;;;26.76;25.35;100830.91;5036104;28;45750;-75
2022/05/30 07:29:15;;;;;;;;;6.00;4.67;;;;;26.92;24.88;100840.97;5034817;28;45887;-74
2022/05/30 07:31:41;;;;;;;;;5.33;4.33;;;;;26.71;25.25;100798.94;5037074;28;45285;-75
2022/05/30 07:34:06;;;;;;;;;7.00;6.00;;;;;26.97;24.70;100828.22;5036297;28;45329;-77
2022/05/30 07:36:32;;;;;;;;;8.67;6.00;;;;;27.00;25.10;100848.75;5053183;28;47633;-75
2022/05/30 07:38:58;;;;;;;;;4.33;4.33;;;;;27.34;24.79;100846.81;5037256;28;45336;-75
2022/05/30 07:41:26;;;;;;;;;6.67;5.67;;;;;27.59;23.92;100847.13;5037623;28;45554;-73
2022/05/30 07:43:52;;;;;;;;;3.33;3.33;;;;;27.82;23.39;100847.97;5053585;28;45198;-75
2022/05/30 07:46:18;;;;;;;;;4.00;4.00;;;;;26.66;23.48;100712.41;5038850;28;45560;-77
2022/05/30 07:48:45;;;;;;;;;7.67;5.00;;;;;27.57;23.39;100819.25;5041084;28;45421;-75
2022/05/30 07:51:12;;;;;;;;;4.00;4.00;;;;;27.78;22.38;100853.13;5039622;28;45435;-77
2022/05/30 07:53:39;;;;;;;;;4.00;3.00;;;;;27.55;22.57;100805.03;5054816;28;45484;-80
2022/05/30 07:56:10;;;;;;;;;3.67;3.67;;;;;27.81;23.30;100843.59;5037241;28;45387;-78
2022/05/30 07:58:38;;;;;;;;;5.00;5.00;;;;;27.26;23.34;100819.94;5035110;28;45609;-75
2022/05/30 08:01:05;;;;;;;;;5.00;4.33;;;;;25.20;22.73;100517.41;5037420;28;45265;-76
2022/05/30 08:03:31;;;;;;;;;2.33;2.33;;;;;27.27;23.58;100832.53;5038186;28;45480;-75
2022/05/30 08:06:09;;;;;;;;;5.00;3.00;;;;;27.51;23.44;100831.19;5054105;28;48433;-75
2022/05/30 08:08:35;;;;;;;;;4.00;4.00;;;;;27.66;23.03;100829.78;5038238;28;45396;-75
2022/05/30 08:11:00;;;;;;;;;4.67;4.00;;;;;27.70;23.41;100800.84;5038107;28;45406;-76
2022/05/30 08:13:26;;;;;;;;;4.00;4.00;;;;;27.95;22.97;100801.13;5052706;28;45506;-77
2022/05/30 08:15:51;;;;;;;;;3.67;3.67;;;;;28.29;22.54;100834.59;5037514;28;47043;-77
2022/05/30 08:18:19;;;;;;;;;4.00;4.00;;;;;28.26;22.81;100791.34;5037002;28;45340;-75
2022/05/30 08:20:48;;;;;;;;;5.00;3.33;;;;;28.38;21.88;100788.44;5037951;28;45299;-79
2022/05/30 08:23:14;;;;;;;;;3.00;3.00;;;;;26.64;21.52;100563.75;5039087;28;45527;-75
2022/05/30 08:25:39;;;;;;;;;5.33;4.00;;;;;27.31;22.36;100735.38;5037813;28;47522;-76
2022/05/30 08:28:06;;;;;;;;;6.00;3.50;;;;;27.84;21.77;100837.63;5036202;28;45487;-76
2022/05/30 08:30:31;;;;;;;;;3.33;3.33;;;;;27.56;22.48;100771.16;5036550;28;45524;-75
2022/05/30 08:32:56;;;;;;;;;5.67;4.67;;;;;27.94;22.23;100815.88;5036628;28;45476;-74
2022/05/30 08:35:22;;;;;;;;;4.33;3.33;;;;;27.34;21.59;100750.41;5051630;28;46805;-75
2022/05/30 08:37:48;;;;;;;;;4.33;4.33;;;;;27.40;22.21;100769.34;5051764;28;45639;-75
2022/05/30 08:43:41;;;;;;;;;2.33;2.33;;;;;27.65;21.37;100823.47;5018810;28;45581;-77
2022/05/30 08:46:26;;;;;;;;;2.33;1.00;;;;;27.38;20.87;100830.75;5018578;28;45711;-74
2022/05/30 08:49:22;;;;;;;;;2.67;2.67;;;;;27.32;21.91;100832.59;5034599;28;45563;-78
2022/05/30 08:51:50;;;;;;;;;2.00;2.00;;;;;27.45;21.25;100836.84;5040036;28;45606;-74
2022/05/30 08:54:40;;;;;;;;;4.33;2.67;;;;;27.40;22.20;100823.94;5038689;28;45533;-75
2022/05/30 08:57:16;;;;;;;;;3.00;3.00;;;;;27.48;21.39;100822.69;5039704;28;45807;-74
2022/05/30 09:00:04;;;;;;;;;3.00;3.00;;;;;28.10;21.79;100836.00;5039804;28;45269;-76
2022/05/30 09:02:37;;;;;;;;;3.00;3.00;;;;;28.94;21.35;100829.94;5040718;28;45482;-75
2022/05/30 09:05:09;;;;;;;;;4.00;2.67;;;;;29.45;20.03;100830.22;5044449;28;45410;-73
2022/05/30 09:07:46;;;;;;;;;4.33;3.00;;;;;29.89;20.23;100811.50;5040168;28;45439;-74
2022/05/30 09:10:18;;;;;;;;;3.67;2.00;;;;;30.25;18.89;100826.13;5038421;28;45222;-75
2022/05/30 09:13:15;;;;;;;;;3.00;2.00;;;;;30.53;18.85;100808.28;5040242;28;45522;-77
2022/05/30 09:15:52;;;;;;;;;6.33;4.00;;;;;30.97;18.57;100789.31;5032090;28;45462;-74
2022/05/30 09:18:33;;;;;;;;;2.67;2.67;;;;;31.48;17.41;100753.44;5038993;28;45361;-77
2022/05/30 09:20:59;;;;;;;;;3.00;2.00;;;;;31.81;17.05;100784.06;5038101;28;45340;-75
2022/05/30 09:23:25;;;;;;;;;2.67;1.33;;;;;32.20;17.58;100826.16;5038022;28;45314;-75
2022/05/30 09:25:57;;;;;;;;;3.67;3.67;;;;;32.12;16.59;100718.69;5039651;28;45502;-76
2022/05/30 09:28:25;;;;;;;;;3.00;2.00;;;;;32.67;16.25;100755.91;5037801;28;45829;-77
2022/05/30 09:31:13;;;;;;;;;2.00;2.00;;;;;32.86;16.42;100813.84;5038981;28;45444;-76
2022/05/30 09:33:42;;;;;;;;;3.33;2.00;;;;;33.23;15.36;100811.19;5038081;28;45438;-76
2022/05/30 09:36:21;;;;;;;;;4.33;4.33;;;;;33.23;15.42;100813.13;5039293;28;45538;-74
2022/05/30 09:38:56;;;;;;;;;3.00;2.00;;;;;32.88;16.51;100779.38;5039461;28;45638;-78
2022/05/30 09:41:25;;;;;;;;;3.33;3.33;;;;;33.60;15.91;100795.06;5038767;28;45299;-75
2022/05/30 09:44:04;;;;;;;;;1.67;1.67;;;;;33.42;15.10;100742.38;5038250;28;45382;-76
2022/05/30 09:46:36;;;;;;;;;1.00;1.00;;;;;33.83;15.15;100805.22;5037042;28;45262;-74
2022/05/30 09:49:16;;;;;;;;;2.00;2.00;;;;;33.55;15.52;100807.81;5037858;28;45317;-77
2022/05/30 09:52:28;;;;;;;;;3.00;3.00;;;;;33.46;15.27;100798.56;5037638;28;45245;-76
2022/05/30 09:54:55;;;;;;;;;0.33;0.33;;;;;33.23;15.32;100763.53;5031538;28;45500;-75
2022/05/30 09:57:41;;;;;;;;;2.67;2.00;;;;;32.44;16.16;100797.94;5037373;28;45522;-77
2022/05/30 10:00:32;;;;;;;;;1.33;1.33;;;;;31.61;16.40;100774.78;5037110;28;45303;-76
2022/05/30 10:03:34;;;;;;;;;3.00;3.00;;;;;30.37;17.68;100799.22;5031867;28;45423;-78
2022/05/30 10:06:21;;;;;;;;;4.33;3.33;;;;;29.75;19.06;100789.25;5036996;28;45478;-75
2022/05/30 10:08:48;;;;;;;;;2.33;1.33;;;;;28.82;19.54;100760.84;5038217;28;45509;-76
2022/05/30 10:11:32;;;;;;;;;2.00;2.00;;;;;28.00;20.58;100760.19;5036836;28;47374;-74
2022/05/30 10:13:59;;;;;;;;;0.00;0.00;;;;;27.25;20.70;100747.34;5053198;28;45599;-75
2022/05/30 10:16:34;;;;;;;;;2.67;2.67;;;;;26.42;21.39;100737.38;5054571;28;45534;-74
2022/05/30 10:19:06;;;;;;;;;2.33;2.33;;;;;25.73;22.50;100746.53;5038181;28;45284;-78
2022/05/30 10:28:17;;;;;;;;;4.67;4.00;;;;;24.23;24.46;100795.34;5038592;28;45546;-76
2022/05/30 10:31:07;;;;;;;;;1.00;1.00;;;;;23.76;24.71;100788.91;5040053;28;45223;-76
2022/05/30 10:34:01;;;;;;;;;2.33;2.33;;;;;23.32;25.14;100789.00;5054734;28;45597;-73
2022/05/30 10:36:44;;;;;;;;;3.67;1.33;;;;;22.08;25.87;100656.41;5038354;28;45215;-74
2022/05/30 10:39:28;;;;;;;;;2.33;2.33;;;;;22.60;26.28;100804.09;5037285;28;45437;-77
2022/05/30 10:42:03;;;;;;;;;2.00;2.00;;;;;21.61;26.57;100668.56;5037332;28;45433;-75
2022/05/30 10:44:35;;;;;;;;;2.67;2.67;;;;;22.27;27.02;100790.00;4998037;28;1170654;-77
2022/05/30 10:47:11;;;;;;;;;5.67;3.00;;;;;22.18;26.66;100808.38;5038376;28;45453;-73
2022/05/30 10:49:43;;;;;;;;;4.00;3.00;;;;;21.96;27.07;100799.72;5036860;28;45371;-74
2022/05/30 10:52:32;;;;;;;;;3.00;2.00;;;;;21.97;27.13;100804.09;5038925;28;45246;-76
2022/05/30 10:55:06;;;;;;;;;3.67;2.67;;;;;21.75;27.49;100802.75;5038933;28;45753;-77
2022/05/30 10:57:50;;;;;;;;;1.67;0.33;;;;;21.69;27.73;100814.47;5039032;28;45336;-77
2022/05/30 11:00:17;;;;;;;;;2.00;2.00;;;;;21.64;27.43;100806.16;5037359;28;45370;-76
2022/05/30 11:02:49;;;;;;;;;3.00;1.00;;;;;21.55;27.25;100821.78;5038007;28;45664;-75
2022/05/30 11:05:21;;;;;;;;;5.00;4.00;;;;;21.15;27.84;100754.28;5037890;28;45675;-76
2022/05/30 11:08:29;;;;;;;;;2.00;2.00;;;;;21.10;28.22;100783.84;5036849;28;45503;-78
2022/05/30 11:11:36;;;;;;;;;1.67;1.67;;;;;21.04;28.32;100789.25;5038270;28;45429;-77
2022/05/30 11:14:26;;;;;;;;;2.00;2.00;;;;;20.90;28.54;100804.66;5039704;28;45218;-74
2022/05/30 11:17:37;;;;;;;;;2.00;2.00;;;;;20.61;28.65;100795.13;5038185;28;47629;-75
2022/05/30 11:20:15;;;;;;;;;2.33;2.33;;;;;20.67;28.33;100807.81;5032686;28;45266;-73
2022/05/30 11:22:45;;;;;;;;;3.00;3.00;;;;;20.64;28.67;100810.94;5037214;28;45455;-74
2022/05/30 11:25:30;;;;;;;;;1.33;1.33;;;;;20.51;28.23;100805.53;5039701;28;45241;-74
2022/05/30 11:28:27;;;;;;;;;2.33;2.00;;;;;20.39;28.35;100799.03;5037638;28;45602;-74
2022/05/30 11:31:16;;;;;;;;;2.00;2.00;;;;;19.98;28.34;100748.75;5029067;28;45336;-75
2022/05/30 11:34:11;;;;;;;;;4.00;2.00;;;;;20.12;29.23;100790.91;5041427;28;45569;-77
2022/05/30 11:36:56;;;;;;;;;4.33;2.00;;;;;20.20;29.67;100777.19;5041879;28;45578;-75
2022/05/30 11:39:30;;;;;;;;;2.00;2.00;;;;;20.34;29.41;100789.69;5053689;28;48332;-77
2022/05/30 11:42:16;;;;;;;;;4.00;2.67;;;;;20.31;29.12;100798.19;5038659;28;45336;-74
2022/05/30 11:44:51;;;;;;;;;5.33;5.33;;;;;19.47;29.15;100630.56;5038126;28;45552;-75
2022/05/30 11:47:45;;;;;;;;;3.67;2.67;;;;;20.39;27.87;100786.34;5038241;28;45305;-76
2022/05/30 11:50:33;;;;;;;;;2.33;2.33;;;;;20.20;27.77;100754.78;5037825;28;46487;-76
2022/05/30 11:53:18;;;;;;;;;2.00;2.00;;;;;19.92;28.22;100692.91;5037664;28;45340;-76
2022/05/30 11:56:09;;;;;;;;;2.67;2.67;;;;;20.66;28.35;100779.13;5038867;28;45245;-77
2022/05/30 11:59:02;;;;;;;;;4.67;4.67;;;;;20.65;28.44;100780.19;5040776;28;45300;-75
2022/05/30 12:01:31;;;;;;;;;6.00;4.00;;;;;19.73;28.39;100619.84;5053230;28;45607;-75
2022/05/30 12:04:15;;;;;;;;;2.00;2.00;;;;;20.76;28.14;100776.00;5036115;28;45676;-76